KAFF/AFF METAR and TAF weather

Enter ICAO airport designator
Station Type Date Time Source
KAFF METAR 2019/07/18 09:56 UTC NOAA

KAFF 180956Z AUTO 01009KT 10SM CLR 12/07 A3011 RMK AO2 SLP095 T01160065


Station Type Date Time Source
KAFF Decoded METAR 2019/07/18 09:56 UTC NOAA

Air Force Academy, CO, United States (KAFF) 38-58N 104-49W 1999M
Jul 18, 2019 - 05:56 AM EDT / 2019.07.18 0956 UTC
Wind: from the N (010 degrees) at 10 MPH (9 KT):0
Visibility: 10 mile(s):0
Sky conditions: clear
Temperature: 52.9 F (11.6 C)
Dew Point: 43.7 F (6.5 C)
Relative Humidity: 70%
Pressure (altimeter): 30.11 in. Hg (1019 hPa)
ob: KAFF 180956Z AUTO 01009KT 10SM CLR 12/07 A3011 RMK AO2 SLP095 T01160065
cycle: 10

Station Type Date Time Source
KAFF TAF 2019/07/18 11:06 UTC NOAA

TAF TAF KAFF 181103Z 1811/1917 36009KT 9999 FEW200 510006 QNH3010INS
TEMPO 1812/1814 27010G15KT 520006
BECMG 1816/1817 16010G15KT 9999 FEW200 QNH3009INS
BECMG 1902/1903 34009KT 9999 SKC QNH3006INS
BECMG 1904/1905 VRB06KT 9999 SKC QNH3007INS
BECMG 1913/1914 35009KT 9999 FEW200 QNH3001INS TX33/1822Z TN09/1911Z

Example: see airport list